Time;durP1;ratioP1;P1;durP2;ratioP2;P2;SDS_P1;SDS_P2;PMS_P1;PMS_P2;Temp;Humidity;BMP_temperature;BMP_pressure;BME280_temperature;BME280_humidity;BME280_pressure;Samples;Min_cycle;Max_cycle;Signal;HPM_P1;HPM_P2
2022/01/13 00:01:57;;;;;;;11.05;4.25;;;;;;;-13.39;57.87;100276.00;5073610;28;20025;-63
2022/01/13 00:04:23;;;;;;;12.38;3.88;;;;;;;-13.28;58.07;100283.97;5074365;28;20029;-64
2022/01/13 00:06:49;;;;;;;10.25;3.70;;;;;;;-13.24;57.94;100280.66;5073554;28;20021;-64
2022/01/13 00:09:15;;;;;;;11.93;4.13;;;;;;;-13.19;57.89;100279.06;5073337;28;20373;-65
2022/01/13 00:11:41;;;;;;;10.38;4.68;;;;;;;-13.18;58.23;100283.38;5072003;28;20016;-63
2022/01/13 00:22:25;;;;;;;16.83;4.65;;;;;;;-13.23;57.73;100269.53;5073627;28;20027;-64
2022/01/13 00:24:52;;;;;;;13.32;4.57;;;;;;;-13.17;57.58;100279.97;5073614;28;20047;-63
2022/01/13 00:27:18;;;;;;;12.18;4.40;;;;;;;-13.22;57.81;100265.22;5073950;28;20476;-64
2022/01/13 00:29:45;;;;;;;19.10;5.82;;;;;;;-13.25;57.31;100263.47;5074957;28;20024;-64
2022/01/13 00:32:14;;;;;;;13.57;5.40;;;;;;;-13.32;57.38;100256.41;5073255;28;20029;-62
2022/01/13 00:34:40;;;;;;;11.77;4.53;;;;;;;-13.42;57.23;100253.63;5073118;28;20031;-63
2022/01/13 00:37:06;;;;;;;17.55;5.10;;;;;;;-13.49;57.20;100233.75;5072712;28;20032;-64
2022/01/13 00:39:31;;;;;;;11.77;4.90;;;;;;;-13.46;57.16;100232.94;5072840;28;20017;-65
2022/01/13 00:41:57;;;;;;;10.70;5.00;;;;;;;-13.57;56.87;100225.84;5071507;28;20024;-64
2022/01/13 00:44:22;;;;;;;12.85;5.13;;;;;;;-13.74;56.55;100233.16;5072820;28;20040;-64
2022/01/13 00:46:55;;;;;;;14.38;5.07;;;;;;;-13.82;57.57;100237.22;5071450;28;20035;-63
2022/01/13 00:49:21;;;;;;;13.60;5.10;;;;;;;-13.88;57.18;100224.22;5072557;28;20032;-63
2022/01/13 00:51:47;;;;;;;11.48;4.35;;;;;;;-13.96;57.85;100210.28;5072757;28;20044;-64
2022/01/13 00:54:13;;;;;;;11.38;4.68;;;;;;;-13.95;57.78;100212.03;5072591;28;20525;-64
2022/01/13 00:56:39;;;;;;;11.90;4.70;;;;;;;-13.94;57.74;100191.47;5072020;28;20481;-63
2022/01/13 00:59:07;;;;;;;13.82;4.88;;;;;;;-13.97;57.36;100170.78;5072854;28;20035;-64
2022/01/13 01:01:39;;;;;;;12.15;4.68;;;;;;;-14.00;57.75;100174.16;5072247;28;20024;-63
2022/01/13 01:04:06;;;;;;;13.30;4.93;;;;;;;-14.00;57.96;100174.16;5072289;28;20411;-63
2022/01/13 01:06:32;;;;;;;14.57;4.47;;;;;;;-13.95;57.44;100184.56;5072962;28;20035;-64
2022/01/13 01:08:58;;;;;;;11.68;4.28;;;;;;;-13.92;58.02;100173.50;5071990;28;20020;-62
2022/01/13 01:11:27;;;;;;;9.70;4.45;;;;;;;-13.85;57.93;100172.81;5071950;28;20500;-63
2022/01/13 01:13:57;;;;;;;15.32;4.85;;;;;;;-13.86;57.63;100178.78;5072266;28;20035;-64
2022/01/13 01:16:25;;;;;;;12.07;4.05;;;;;;;-14.09;57.27;100131.91;5070071;28;20044;-64
2022/01/13 01:19:01;;;;;;;13.95;4.05;;;;;;;-13.97;57.29;100146.78;5052024;28;20051;-63
2022/01/13 01:26:37;;;;;;;15.93;4.28;;;;;;;-14.29;57.36;100134.84;5051596;28;20367;-63
2022/01/13 01:29:15;;;;;;;11.65;4.40;;;;;;;-14.40;57.54;100126.88;5052034;28;20420;-64
2022/01/13 01:31:46;;;;;;;11.38;4.18;;;;;;;-14.52;57.80;100124.84;5052304;28;20433;-63
2022/01/13 01:34:28;;;;;;;16.65;4.70;;;;;;;-14.67;58.19;100111.59;5051479;28;20028;-64
2022/01/13 01:36:55;;;;;;;8.55;4.00;;;;;;;-14.66;58.37;100132.22;5051665;28;20107;-64
2022/01/13 01:39:21;;;;;;;11.95;3.80;;;;;;;-14.70;58.49;100122.69;5052135;28;20033;-63
2022/01/13 01:41:49;;;;;;;8.48;4.32;;;;;;;-14.65;58.65;100135.63;5052090;28;20055;-64
2022/01/13 01:44:29;;;;;;;12.98;4.28;;;;;;;-14.65;58.73;100131.38;5051472;28;20116;-65
2022/01/13 01:46:55;;;;;;;11.57;4.30;;;;;;;-14.64;58.78;100145.97;5051373;28;20426;-64
2022/01/13 01:49:24;;;;;;;13.65;4.38;;;;;;;-14.63;58.80;100142.56;5052180;28;20115;-63
2022/01/13 01:51:59;;;;;;;14.10;4.32;;;;;;;-14.67;59.06;100138.19;5051730;28;20041;-63
2022/01/13 01:54:26;;;;;;;13.65;3.83;;;;;;;-14.68;59.08;100151.88;5051405;28;20416;-64
2022/01/13 01:56:52;;;;;;;17.42;4.68;;;;;;;-14.70;58.79;100130.38;5051247;28;20032;-64
2022/01/13 01:59:22;;;;;;;11.18;4.15;;;;;;;-14.57;59.37;100124.72;5067127;28;20031;-63
2022/01/13 02:01:49;;;;;;;14.07;4.72;;;;;;;-14.46;58.90;100122.44;5051823;28;20033;-64
2022/01/13 02:04:15;;;;;;;12.48;4.68;;;;;;;-14.36;58.90;100108.09;5051145;28;20090;-65
2022/01/13 02:06:43;;;;;;;15.80;5.13;;;;;;;-14.29;58.39;100110.00;5051021;28;20070;-63
2022/01/13 02:09:11;;;;;;;11.07;4.28;;;;;;;-14.28;58.32;100109.16;5051322;28;20024;-63
2022/01/13 02:11:43;;;;;;;12.60;4.63;;;;;;;-14.23;58.09;100108.38;5051829;28;20025;-63
2022/01/13 02:16:56;;;;;;;17.35;5.00;;;;;;;-14.19;58.56;100116.22;5051088;28;20120;-64
2022/01/13 02:19:24;;;;;;;14.40;4.68;;;;;;;-14.18;58.06;100127.41;5051553;28;20029;-64
2022/01/13 02:21:50;;;;;;;13.77;4.45;;;;;;;-14.15;58.05;100128.34;5051455;28;20413;-63
2022/01/13 02:24:15;;;;;;;14.93;5.13;;;;;;;-14.10;58.32;100115.59;5051168;28;20059;-64
2022/01/13 02:26:41;;;;;;;17.92;5.03;;;;;;;-14.09;57.87;100116.47;5050878;28;20056;-64
2022/01/13 02:29:07;;;;;;;12.13;4.72;;;;;;;-14.05;57.53;100124.28;5051837;28;20049;-63
2022/01/13 02:31:32;;;;;;;18.48;5.38;;;;;;;-14.02;57.36;100124.34;5049693;28;20024;-63
2022/01/13 02:33:58;;;;;;;14.98;5.60;;;;;;;-13.99;57.48;100121.84;5049280;28;20071;-63
2022/01/13 02:36:24;;;;;;;15.65;5.55;;;;;;;-14.02;57.47;100106.34;5049764;28;20020;-64
2022/01/13 02:38:53;;;;;;;14.05;4.63;;;;;;;-13.94;57.47;100110.81;5051474;28;20032;-64
2022/01/13 02:41:19;;;;;;;12.60;4.55;;;;;;;-14.08;57.37;100083.03;5051031;28;20029;-64
2022/01/13 02:43:47;;;;;;;12.63;5.32;;;;;;;-13.99;57.58;100097.84;5050558;28;20458;-64
2022/01/13 02:49:07;;;;;;;13.10;4.63;;;;;;;-13.96;56.85;100123.63;5049653;28;20033;-63
2022/01/13 02:51:33;;;;;;;17.00;4.65;;;;;;;-14.04;57.25;100118.31;5050743;28;20358;-65
2022/01/13 02:53:58;;;;;;;14.95;5.35;;;;;;;-14.13;56.71;100115.53;5050845;28;20045;-64
2022/01/13 02:56:24;;;;;;;14.50;5.53;;;;;;;-14.28;57.05;100083.44;5050751;28;20513;-64
2022/01/13 02:58:50;;;;;;;18.65;5.85;;;;;;;-14.43;56.75;100070.22;5049186;28;20025;-64
2022/01/13 03:01:15;;;;;;;18.20;4.95;;;;;;;-14.50;56.96;100053.75;5051206;28;20151;-63
2022/01/13 03:03:42;;;;;;;15.68;5.00;;;;;;;-14.59;56.92;100048.38;5050863;28;20049;-64
2022/01/13 03:06:10;;;;;;;16.45;4.97;;;;;;;-14.93;56.93;100043.31;5050469;28;20480;-64
2022/01/13 03:08:37;;;;;;;16.35;6.13;;;;;;;-14.97;57.06;100059.44;5050989;28;20419;-63
2022/01/13 03:11:03;;;;;;;15.82;6.03;;;;;;;-14.98;57.49;100101.38;5049681;28;20413;-63
2022/01/13 03:13:30;;;;;;;12.73;5.22;;;;;;;-15.02;57.74;100085.03;5050329;28;20028;-63
2022/01/13 03:15:56;;;;;;;18.27;5.18;;;;;;;-15.01;57.87;100086.78;5050647;28;20386;-65
2022/01/13 03:18:21;;;;;;;14.95;5.07;;;;;;;-15.03;57.94;100092.69;5054390;28;20017;-64
2022/01/13 03:20:47;;;;;;;16.67;4.53;;;;;;;-15.08;57.14;100089.13;5052897;28;20480;-64
2022/01/13 03:23:16;;;;;;;13.20;4.72;;;;;;;-15.21;57.29;100077.63;5054284;28;20040;-63
2022/01/13 03:25:44;;;;;;;14.48;5.20;;;;;;;-15.31;57.63;100061.09;5054551;28;20374;-62
2022/01/13 03:28:16;;;;;;;15.23;5.78;;;;;;;-15.31;57.77;100066.25;5055020;28;20029;-65
2022/01/13 03:30:42;;;;;;;11.48;4.55;;;;;;;-15.46;57.67;100018.75;5054486;28;20028;-64
2022/01/13 03:33:08;;;;;;;18.60;5.35;;;;;;;-15.34;57.45;100045.63;5053852;28;20366;-65
2022/01/13 03:35:36;;;;;;;12.48;4.45;;;;;;;-15.45;57.42;100020.50;5054620;28;20152;-64
2022/01/13 03:38:02;;;;;;;12.00;4.72;;;;;;;-15.37;57.83;100013.00;5054307;28;20028;-64
2022/01/13 03:40:27;;;;;;;11.00;4.78;;;;;;;-15.35;57.91;100013.91;5053930;28;20029;-65
2022/01/13 03:42:53;;;;;;;16.13;4.90;;;;;;;-15.35;57.61;99992.53;5054099;28;20043;-64
2022/01/13 03:45:22;;;;;;;11.50;4.97;;;;;;;-15.30;57.76;99993.50;5054379;28;20025;-64
2022/01/13 03:47:47;;;;;;;13.10;4.68;;;;;;;-15.29;57.62;100002.94;5053929;28;20021;-63
2022/01/13 03:50:13;;;;;;;12.55;4.30;;;;;;;-15.34;57.54;100004.53;5053665;28;20032;-64
2022/01/13 03:53:07;;;;;;;11.77;4.90;;;;;;;-15.37;58.22;99989.03;5053805;28;20041;-64
2022/01/13 03:55:36;;;;;;;14.35;5.72;;;;;;;-15.36;58.09;99983.06;5054310;28;20059;-64
2022/01/13 03:58:11;;;;;;;19.17;5.82;;;;;;;-15.35;58.13;99979.69;5053686;28;20033;-64
2022/01/13 04:01:23;;;;;;;15.27;5.93;;;;;;;-15.34;57.66;99976.28;5053414;28;20025;-64
2022/01/13 04:03:49;;;;;;;15.63;4.90;;;;;;;-15.58;57.84;99938.84;5053767;28;20513;-63
2022/01/13 04:06:14;;;;;;;15.45;5.30;;;;;;;-15.37;57.98;99978.78;5054026;28;20477;-64
2022/01/13 04:08:40;;;;;;;23.25;6.53;;;;;;;-15.36;58.20;99978.78;5053656;28;20037;-64
2022/01/13 04:11:06;;;;;;;17.02;6.22;;;;;;;-15.34;57.73;99971.16;5053180;28;20035;-63
2022/01/13 04:13:43;;;;;;;15.73;6.07;;;;;;;-15.34;57.65;99960.88;5052457;28;20040;-64
2022/01/13 04:16:10;;;;;;;21.02;6.28;;;;;;;-15.47;57.92;99937.44;5053870;28;20029;-65
2022/01/13 04:18:35;;;;;;;18.45;6.07;;;;;;;-15.41;58.05;99935.88;5053071;28;20032;-64
2022/01/13 04:21:01;;;;;;;18.75;6.32;;;;;;;-15.61;58.29;99903.69;5052806;28;20017;-64
2022/01/13 04:23:27;;;;;;;14.57;4.82;;;;;;;-15.69;58.27;99876.97;5052578;28;20028;-65
2022/01/13 04:25:52;;;;;;;21.33;6.30;;;;;;;-15.41;58.11;99898.22;5052265;28;20451;-65
2022/01/13 04:28:25;;;;;;;18.73;6.32;;;;;;;-15.55;57.87;99864.50;5052176;28;20454;-65
2022/01/13 04:30:53;;;;;;;19.00;5.88;;;;;;;-15.29;58.00;99902.78;5050464;28;20063;-64
2022/01/13 04:33:19;;;;;;;17.70;6.10;;;;;;;-15.26;58.38;99894.31;5051771;28;20450;-64
2022/01/13 04:35:46;;;;;;;24.38;6.70;;;;;;;-15.18;58.19;99898.81;5052958;28;20025;-65
2022/01/13 04:38:11;;;;;;;16.60;6.32;;;;;;;-15.15;58.32;99887.72;5053197;28;20025;-65
2022/01/13 04:40:44;;;;;;;14.55;5.78;;;;;;;-15.11;58.34;99899.81;5052719;28;20346;-64
2022/01/13 04:43:11;;;;;;;18.10;6.53;;;;;;;-15.11;58.53;99894.69;5052832;28;20108;-64
2022/01/13 04:45:37;;;;;;;18.13;5.88;;;;;;;-15.06;58.33;99897.38;5052583;28;20033;-64
2022/01/13 04:48:02;;;;;;;21.98;5.93;;;;;;;-15.01;58.44;99896.66;5052489;28;20036;-65
2022/01/13 04:50:28;;;;;;;14.93;4.97;;;;;;;-14.99;58.62;99873.56;5052714;28;20451;-64
2022/01/13 04:52:54;;;;;;;13.10;5.40;;;;;;;-14.93;58.52;99878.84;5052232;28;20052;-64
2022/01/13 04:55:29;;;;;;;11.02;4.68;;;;;;;-14.92;58.37;99856.59;5051646;28;20084;-65
2022/01/13 04:57:55;;;;;;;14.57;4.50;;;;;;;-14.98;58.20;99849.59;5052540;28;20150;-66
2022/01/13 05:00:22;;;;;;;16.70;5.28;;;;;;;-15.02;58.74;99876.94;5052374;28;20040;-64
2022/01/13 05:02:48;;;;;;;15.95;5.18;;;;;;;-15.01;58.80;99888.06;5052167;28;20029;-64
2022/01/13 05:05:14;;;;;;;12.70;4.95;;;;;;;-14.98;58.76;99879.56;5053097;28;20024;-65
2022/01/13 05:07:40;;;;;;;18.98;5.00;;;;;;;-14.95;59.13;99865.06;5052140;28;20146;-64
2022/01/13 05:10:06;;;;;;;14.15;5.05;;;;;;;-14.92;58.58;99852.31;5052029;28;20150;-64
2022/01/13 05:12:38;;;;;;;15.13;5.15;;;;;;;-14.92;58.67;99834.34;5052669;28;20147;-65
2022/01/13 05:15:06;;;;;;;15.68;5.70;;;;;;;-14.98;58.68;99834.19;5052382;28;20473;-65
2022/01/13 05:18:00;;;;;;;14.95;5.25;;;;;;;-15.04;58.54;99849.47;5051925;28;20017;-65
2022/01/13 05:20:46;;;;;;;13.60;4.30;;;;;;;-15.09;58.34;99862.19;5071184;28;20029;-64
2022/01/13 05:23:12;;;;;;;12.27;4.55;;;;;;;-15.13;58.75;99856.97;5072588;28;20023;-65
2022/01/13 05:25:39;;;;;;;15.90;5.18;;;;;;;-15.10;58.44;99845.03;5071618;28;20027;-64
2022/01/13 05:28:05;;;;;;;14.48;5.13;;;;;;;-15.21;58.52;99821.66;5071383;28;20056;-64
2022/01/13 05:30:31;;;;;;;14.40;5.97;;;;;;;-15.29;59.24;99807.78;5072333;28;20051;-65
2022/01/13 05:32:56;;;;;;;17.05;5.60;;;;;;;-15.34;58.99;99789.69;5071951;28;20109;-64
2022/01/13 05:35:23;;;;;;;22.42;6.35;;;;;;;-15.36;59.08;99775.09;5071627;28;20031;-65
2022/01/13 05:37:49;;;;;;;13.27;5.18;;;;;;;-15.40;58.80;99770.75;5071421;28;20370;-63
2022/01/13 05:40:14;;;;;;;21.70;7.25;;;;;;;-15.48;59.23;99762.84;5072255;28;20020;-64
2022/01/13 05:42:40;;;;;;;13.57;4.82;;;;;;;-15.54;59.13;99763.56;5071120;28;20024;-65
2022/01/13 05:45:14;;;;;;;14.23;5.38;;;;;;;-15.52;59.40;99764.47;5070580;28;20024;-64
2022/01/13 05:47:43;;;;;;;11.32;4.97;;;;;;;-15.43;59.66;99756.13;5067314;28;20025;-64
2022/01/13 05:50:11;;;;;;;15.23;5.22;;;;;;;-15.39;59.56;99754.50;5071930;28;20653;-62
2022/01/13 05:52:37;;;;;;;14.35;5.18;;;;;;;-15.35;59.73;99746.03;5071754;28;20122;-63
2022/01/13 05:55:05;;;;;;;14.90;4.97;;;;;;;-15.38;59.87;99756.22;5071031;28;20047;-64
2022/01/13 05:57:31;;;;;;;13.35;5.28;;;;;;;-15.33;59.46;99749.50;5071209;28;20045;-65
2022/01/13 05:59:56;;;;;;;14.23;4.85;;;;;;;-15.36;59.68;99742.56;5071266;28;20043;-63
2022/01/13 06:02:22;;;;;;;13.32;4.82;;;;;;;-15.43;59.45;99727.88;5071553;28;20027;-61
2022/01/13 06:04:47;;;;;;;11.82;4.47;;;;;;;-15.49;59.89;99733.72;5071015;28;20017;-64
2022/01/13 06:07:13;;;;;;;20.90;5.03;;;;;;;-15.45;59.52;99753.50;5070704;28;20032;-64
2022/01/13 06:09:38;;;;;;;18.25;5.60;;;;;;;-15.34;59.68;99758.88;5071598;28;20024;-63
2022/01/13 06:12:05;;;;;;;14.50;5.28;;;;;;;-15.25;59.94;99752.25;5071313;28;20046;-64
2022/01/13 06:14:30;;;;;;;15.88;5.28;;;;;;;-15.11;59.83;99744.84;5070600;28;20028;-64
2022/01/13 06:16:56;;;;;;;19.38;6.32;;;;;;;-15.18;59.35;99688.22;5070812;28;20431;-63
2022/01/13 06:19:21;;;;;;;18.73;5.55;;;;;;;-14.87;59.10;99719.66;5071273;28;20082;-64
2022/01/13 06:21:47;;;;;;;14.50;5.75;;;;;;;-14.98;58.68;99700.59;5081110;28;20077;-64
2022/01/13 06:24:12;;;;;;;17.77;6.38;;;;;;;-14.79;59.08;99717.25;5090926;28;20032;-64
2022/01/13 06:26:38;;;;;;;21.48;6.68;;;;;;;-14.72;59.13;99713.09;5090971;28;20377;-62
2022/01/13 06:29:04;;;;;;;18.38;6.53;;;;;;;-14.74;59.03;99665.94;5089896;28;20107;-63
2022/01/13 06:31:29;;;;;;;21.92;6.13;;;;;;;-14.52;58.35;99681.72;5090957;28;20461;-66
2022/01/13 06:33:55;;;;;;;21.90;6.78;;;;;;;-14.39;58.15;99687.97;5090772;28;20028;-64
2022/01/13 06:36:20;;;;;;;16.98;6.03;;;;;;;-14.35;58.36;99688.06;5090774;28;20028;-63
2022/01/13 06:38:48;;;;;;;16.60;6.47;;;;;;;-14.21;58.10;99679.75;5091309;28;20111;-65
2022/01/13 06:41:18;;;;;;;19.38;6.22;;;;;;;-13.78;58.87;99664.13;5078921;28;20026;-63
2022/01/13 06:43:44;;;;;;;24.17;7.90;;;;;;;-12.56;57.57;99636.44;5070565;28;20024;-63
2022/01/13 06:46:17;;;;;;;23.00;7.93;;;;;;;-11.26;54.48;99646.84;5070911;28;20055;-63
2022/01/13 06:48:43;;;;;;;24.50;8.55;;;;;;;-10.54;52.04;99650.56;5070701;28;20032;-64
2022/01/13 06:51:09;;;;;;;22.10;7.78;;;;;;;-10.56;50.89;99624.72;5070368;28;20020;-65
2022/01/13 06:53:36;;;;;;;23.58;7.97;;;;;;;-10.78;52.18;99618.59;5071235;28;20048;-65
2022/01/13 06:56:01;;;;;;;21.77;8.48;;;;;;;-10.77;51.76;99625.50;5074749;28;20107;-64
2022/01/13 06:58:27;;;;;;;22.73;7.97;;;;;;;-10.73;51.78;99637.59;5074638;28;20128;-64
2022/01/13 07:00:53;;;;;;;22.83;8.20;;;;;;;-10.54;53.03;99643.69;5075445;28;20060;-62
2022/01/13 07:03:20;;;;;;;23.02;7.82;;;;;;;-9.03;51.31;99629.72;5074806;28;20131;-65
2022/01/13 07:05:46;;;;;;;22.33;8.10;;;;;;;-7.46;48.65;99610.41;5074645;28;20028;-65
2022/01/13 07:08:12;;;;;;;26.25;8.25;;;;;;;-6.01;45.27;99602.44;5073971;28;20032;-65
2022/01/13 07:10:38;;;;;;;21.52;8.68;;;;;;;-4.54;42.90;99588.28;5074649;28;20420;-64
2022/01/13 07:13:04;;;;;;;22.27;9.02;;;;;;;-2.94;40.13;99578.09;5073981;28;20029;-65
2022/01/13 07:15:31;;;;;;;21.55;9.15;;;;;;;-1.60;36.95;99554.63;5074692;28;20126;-64
2022/01/13 07:17:57;;;;;;;25.27;10.35;;;;;;;-0.34;35.28;99550.00;5074823;28;20431;-64
2022/01/13 07:20:24;;;;;;;20.70;9.85;;;;;;;0.56;33.71;99563.84;5056295;28;20389;-65
2022/01/13 07:22:51;;;;;;;27.63;10.68;;;;;;;1.33;32.68;99559.53;5073007;28;20359;-65
2022/01/13 07:25:17;;;;;;;24.48;11.00;;;;;;;2.10;31.30;99544.41;5074705;28;20024;-65
2022/01/13 07:27:43;;;;;;;22.83;10.77;;;;;;;2.78;29.98;99523.34;5074645;28;20063;-65
2022/01/13 07:30:10;;;;;;;29.05;10.85;;;;;;;3.48;28.59;99512.50;5073894;28;20025;-64
2022/01/13 07:32:37;;;;;;;26.67;11.40;;;;;;;3.72;28.07;99482.91;5072826;28;20035;-65
2022/01/13 07:35:03;;;;;;;28.23;11.18;;;;;;;3.91;27.56;99519.78;5073419;28;20032;-65
2022/01/13 07:37:29;;;;;;;22.27;10.32;;;;;;;3.49;27.61;99535.38;5074500;28;20055;-65
2022/01/13 07:39:54;;;;;;;23.13;11.00;;;;;;;2.13;28.45;99536.31;5072510;28;20153;-66
2022/01/13 07:42:22;;;;;;;25.95;11.32;;;;;;;0.52;30.39;99541.19;5074108;28;20031;-64
2022/01/13 07:44:48;;;;;;;27.27;11.48;;;;;;;-0.90;31.47;99522.38;5074331;28;20036;-64
2022/01/13 07:47:14;;;;;;;26.55;11.68;;;;;;;-2.08;33.11;99521.28;5071871;28;20031;-68
2022/01/13 07:49:39;;;;;;;25.25;10.77;;;;;;;-3.09;34.16;99513.94;5052374;28;20504;-63
2022/01/13 07:52:05;;;;;;;25.80;10.70;;;;;;;-4.10;36.79;99490.50;5053083;28;20041;-63
2022/01/13 07:54:31;;;;;;;22.92;10.60;;;;;;;-4.93;37.72;99499.44;5053096;28;20112;-62
2022/01/13 07:56:58;;;;;;;26.48;10.77;;;;;;;-5.82;39.70;99493.44;5054139;28;20390;-64
2022/01/13 07:59:28;;;;;;;24.02;9.93;;;;;;;-6.58;40.30;99489.53;5054049;28;20101;-65
2022/01/13 08:01:58;;;;;;;22.52;9.13;;;;;;;-7.07;41.62;99488.53;5068675;28;20430;-64
2022/01/13 08:04:24;;;;;;;31.30;10.02;;;;;;;-7.63;42.91;99478.84;5064283;28;20108;-66
2022/01/13 08:06:50;;;;;;;26.73;9.30;;;;;;;-8.16;43.22;99465.56;5072353;28;20116;-65
2022/01/13 08:09:15;;;;;;;22.83;8.55;;;;;;;-8.51;44.55;99444.28;5073202;28;20466;-64
2022/01/13 08:11:41;;;;;;;20.98;8.73;;;;;;;-8.90;44.96;99434.22;5073012;28;20031;-65
2022/01/13 08:14:06;;;;;;;20.13;8.70;;;;;;;-9.07;45.24;99430.88;5073557;28;20373;-65
2022/01/13 08:16:35;;;;;;;18.92;7.65;;;;;;;-9.21;45.27;99418.84;5073530;28;20442;-67
2022/01/13 08:21:45;;;;;;;20.50;7.40;;;;;;;-9.57;46.21;99402.66;5063729;28;20048;-61
2022/01/13 08:24:10;;;;;;;18.20;7.53;;;;;;;-9.78;46.57;99386.34;5052569;28;20104;-70
2022/01/13 08:26:36;;;;;;;20.95;6.78;;;;;;;-9.82;46.41;99376.88;5052665;28;20021;-63
2022/01/13 08:29:03;;;;;;;14.02;6.45;;;;;;;-9.60;46.41;99366.41;5052704;28;20488;-64
2022/01/13 08:31:28;;;;;;;20.77;7.00;;;;;;;-9.47;46.24;99347.28;5052259;28;20031;-64
2022/01/13 08:33:54;;;;;;;16.58;6.40;;;;;;;-9.33;46.20;99343.75;5052842;28;20029;-65
2022/01/13 08:36:19;;;;;;;21.85;7.47;;;;;;;-9.42;46.03;99339.50;5052199;28;20452;-65
2022/01/13 08:38:48;;;;;;;16.27;7.45;;;;;;;-9.43;46.22;99358.50;5051221;28;20035;-66
2022/01/13 08:41:13;;;;;;;21.05;7.13;;;;;;;-9.57;46.47;99338.72;5050972;28;20021;-66
2022/01/13 08:43:39;;;;;;;20.15;7.35;;;;;;;-9.57;46.20;99319.75;5052284;28;20109;-68
2022/01/13 08:46:04;;;;;;;18.48;6.80;;;;;;;-9.60;46.38;99293.84;5052432;28;20112;-66
2022/01/13 08:48:32;;;;;;;19.75;7.57;;;;;;;-9.59;46.53;99299.00;5053142;28;20028;-66
2022/01/13 08:50:58;;;;;;;17.27;6.90;;;;;;;-9.50;46.79;99299.81;5052697;28;20024;-69
2022/01/13 08:53:23;;;;;;;18.45;6.60;;;;;;;-9.37;46.73;99293.66;5052671;28;20067;-66
2022/01/13 08:55:51;;;;;;;15.05;5.45;;;;;;;-9.27;47.05;99284.06;5053038;28;20029;-67
2022/01/13 08:58:18;;;;;;;12.65;5.45;;;;;;;-9.23;46.64;99275.38;5052444;28;20025;-67
2022/01/13 09:00:44;;;;;;;15.35;5.38;;;;;;;-9.19;46.89;99279.66;5052345;28;20036;-67
2022/01/13 09:03:11;;;;;;;17.13;5.05;;;;;;;-9.24;46.38;99264.19;5055802;28;20021;-66
2022/01/13 09:05:38;;;;;;;12.10;4.90;;;;;;;-9.18;46.72;99245.09;5067388;28;20064;-69
2022/01/13 09:08:09;;;;;;;12.18;4.80;;;;;;;-9.15;46.85;99232.13;5070156;28;20024;-65
2022/01/13 09:10:35;;;;;;;12.23;4.68;;;;;;;-9.07;46.57;99220.78;5051098;28;20112;-67
2022/01/13 09:13:01;;;;;;;13.65;5.10;;;;;;;-9.11;46.90;99207.00;5053122;28;20107;-66
2022/01/13 09:15:34;;;;;;;12.30;5.43;;;;;;;-9.13;46.80;99193.19;5052368;28;20032;-71
2022/01/13 09:18:08;;;;;;;10.60;5.10;;;;;;;-9.18;46.63;99179.41;5051933;28;20032;-66
2022/01/13 09:20:34;;;;;;;15.65;5.35;;;;;;;-9.20;46.72;99179.41;5056463;28;20104;-65
2022/01/13 09:22:59;;;;;;;12.02;4.60;;;;;;;-9.16;46.93;99183.72;5072484;28;20143;-65
2022/01/13 09:25:25;;;;;;;17.45;5.07;;;;;;;-9.14;46.90;99200.13;5071746;28;20374;-67
2022/01/13 09:27:51;;;;;;;13.25;4.85;;;;;;;-9.14;47.10;99207.03;5071016;28;20401;-65
2022/01/13 09:30:17;;;;;;;13.95;4.85;;;;;;;-9.09;47.18;99203.50;5072090;28;20028;-66
2022/01/13 09:32:43;;;;;;;13.77;5.53;;;;;;;-9.07;47.14;99205.22;5072245;28;20112;-66
2022/01/13 09:35:08;;;;;;;14.05;6.60;;;;;;;-9.02;46.99;99187.88;5071282;28;20028;-68
2022/01/13 09:37:35;;;;;;;12.68;5.13;;;;;;;-8.90;47.08;99195.53;5071725;28;20465;-66
2022/01/13 09:40:01;;;;;;;11.20;4.22;;;;;;;-8.87;47.14;99179.06;5071148;28;20021;-65
2022/01/13 09:42:29;;;;;;;13.35;4.78;;;;;;;-8.82;47.20;99157.38;5072751;28;20454;-64
2022/01/13 09:44:57;;;;;;;14.98;5.45;;;;;;;-8.85;46.52;99154.81;5071573;28;20401;-67
2022/01/13 09:47:23;;;;;;;10.15;4.45;;;;;;;-8.95;46.93;99156.66;5071284;28;20052;-67
2022/01/13 09:49:49;;;;;;;12.52;4.60;;;;;;;-9.01;47.37;99150.69;5071558;28;20052;-65
2022/01/13 09:52:15;;;;;;;11.65;4.43;;;;;;;-9.01;47.38;99129.94;5071857;28;20032;-66
2022/01/13 09:54:41;;;;;;;10.00;4.25;;;;;;;-9.01;47.46;99106.59;5069790;28;20033;-66
2022/01/13 09:57:08;;;;;;;10.02;4.32;;;;;;;-8.99;47.49;99117.81;5069605;28;20484;-68
2022/01/13 09:59:33;;;;;;;10.20;3.83;;;;;;;-9.02;47.12;99103.16;5058763;28;20422;-66
2022/01/13 10:01:59;;;;;;;11.20;4.22;;;;;;;-9.02;47.75;99103.16;5051764;28;20103;-66
2022/01/13 10:04:24;;;;;;;10.68;4.25;;;;;;;-9.00;47.82;99100.53;5051504;28;20021;-67
2022/01/13 10:06:50;;;;;;;8.52;3.50;;;;;;;-9.02;47.90;99082.41;5050833;28;20074;-67
2022/01/13 10:09:16;;;;;;;9.65;4.10;;;;;;;-9.01;47.58;99086.72;5049720;28;20025;-68
2022/01/13 10:11:53;;;;;;;8.77;3.78;;;;;;;-9.04;47.58;99078.97;5049316;28;20367;-67
2022/01/13 10:16:55;;;;;;;10.73;4.72;;;;;;;-9.55;48.22;98963.78;5050706;28;20064;-67
2022/01/13 10:19:30;;;;;;;10.32;3.58;;;;;;;-8.97;47.98;99017.47;5050755;28;20033;-70
2022/01/13 10:22:13;;;;;;;11.13;3.78;;;;;;;-8.97;48.03;98992.41;5050581;28;20029;-70
2022/01/13 10:24:41;;;;;;;10.90;4.65;;;;;;;-9.01;48.20;98993.34;5050906;28;20445;-68
2022/01/13 10:27:21;;;;;;;12.23;4.20;;;;;;;-9.04;48.67;98974.38;5050748;28;20032;-70
2022/01/13 10:29:59;;;;;;;11.07;3.90;;;;;;;-9.10;48.63;98960.63;5050622;28;20043;-67
2022/01/13 10:32:33;;;;;;;11.55;4.25;;;;;;;-9.19;48.64;98941.75;5051201;28;20068;-68
2022/01/13 10:35:02;;;;;;;11.30;4.63;;;;;;;-9.20;48.47;98922.72;5051458;28;20060;-68
2022/01/13 10:37:35;;;;;;;11.25;4.28;;;;;;;-9.28;49.21;98929.75;5051912;28;20029;-69
2022/01/13 10:40:04;;;;;;;10.80;3.97;;;;;;;-9.37;49.30;98920.38;5050722;28;20110;-68
2022/01/13 10:43:06;;;;;;;11.65;4.13;;;;;;;-9.38;49.85;98905.69;5050442;28;20347;-68
2022/01/13 10:45:31;;;;;;;17.17;4.40;;;;;;;-9.52;49.95;98843.69;5050536;28;20021;-68
2022/01/13 10:48:16;;;;;;;10.98;3.83;;;;;;;-9.25;49.84;98888.22;5049178;28;20120;-68
2022/01/13 10:50:48;;;;;;;11.10;4.55;;;;;;;-9.30;50.20;98862.38;5051175;28;20103;-70
2022/01/13 10:53:21;;;;;;;10.35;4.03;;;;;;;-9.22;50.94;98864.84;5050655;28;20095;-69
2022/01/13 10:55:56;;;;;;;9.65;4.32;;;;;;;-9.42;50.63;98798.59;5050560;28;20035;-65
2022/01/13 10:58:28;;;;;;;15.68;4.20;;;;;;;-9.16;50.66;98814.63;5051065;28;20035;-68
2022/01/13 11:00:55;;;;;;;11.88;4.68;;;;;;;-9.10;50.96;98809.34;5051281;28;20108;-70
2022/01/13 11:03:22;;;;;;;12.75;4.47;;;;;;;-9.16;51.65;98797.34;5077231;28;20026;-68
2022/01/13 11:05:50;;;;;;;12.23;4.50;;;;;;;-9.15;52.06;98786.09;5081340;28;20029;-69
2022/01/13 11:08:32;;;;;;;10.20;4.20;;;;;;;-9.17;52.15;98761.91;5078495;28;20036;-69
2022/01/13 11:11:00;;;;;;;10.65;3.63;;;;;;;-9.03;52.22;98760.81;5083734;28;20059;-68
2022/01/13 11:13:28;;;;;;;11.48;4.45;;;;;;;-9.03;52.79;98758.22;5090554;28;20039;-69
2022/01/13 11:15:57;;;;;;;11.60;4.63;;;;;;;-9.14;53.14;98715.19;5074669;28;20116;-68
2022/01/13 11:18:28;;;;;;;8.80;3.40;;;;;;;-8.97;53.76;98727.84;5071663;28;20107;-68
2022/01/13 11:20:55;;;;;;;11.30;4.40;;;;;;;-8.96;53.68;98718.31;5070272;28;20410;-69
2022/01/13 11:23:21;;;;;;;12.25;4.57;;;;;;;-8.91;53.75;98703.53;5069657;28;20020;-70
2022/01/13 11:25:49;;;;;;;18.02;4.15;;;;;;;-8.97;54.49;98686.34;5070592;28;20081;-68
2022/01/13 11:28:15;;;;;;;9.75;4.15;;;;;;;-8.96;54.60;98672.50;5070879;28;20035;-70
2022/01/13 11:30:42;;;;;;;12.57;4.38;;;;;;;-8.95;55.07;98676.78;5068851;28;20199;-67
2022/01/13 11:33:07;;;;;;;12.07;4.80;;;;;;;-9.04;55.88;98629.44;5070297;28;20455;-69
2022/01/13 11:35:38;;;;;;;10.85;3.90;;;;;;;-8.91;55.97;98617.94;5070920;28;20096;-67
2022/01/13 11:38:05;;;;;;;12.55;4.95;;;;;;;-8.83;56.04;98629.00;5070902;28;20628;-69
2022/01/13 11:40:38;;;;;;;9.73;4.20;;;;;;;-8.75;56.78;98628.84;5070261;28;20025;-69
2022/01/13 11:43:06;;;;;;;10.50;4.60;;;;;;;-8.69;56.66;98643.41;5106952;28;20024;-69
2022/01/13 11:45:40;;;;;;;14.18;4.72;;;;;;;-8.59;56.99;98629.34;5074310;28;20020;-68
2022/01/13 11:48:15;;;;;;;9.27;4.78;;;;;;;-8.49;56.93;98613.56;5074331;28;20067;-69